createdAt,value
2022-08-16T00:01:24.455Z,22.94
2022-08-16T00:03:53.154Z,22.93
2022-08-16T00:06:21.704Z,22.94
2022-08-16T00:08:52.420Z,22.94
2022-08-16T00:11:20.884Z,22.94
2022-08-16T00:13:54.276Z,22.94
2022-08-16T00:17:01.327Z,22.94
2022-08-16T00:19:13.581Z,22.94
2022-08-16T00:21:42.726Z,22.93
2022-08-16T00:24:12.227Z,22.92
2022-08-16T00:26:44.539Z,22.92
2022-08-16T00:29:16.209Z,22.91
2022-08-16T00:31:58.631Z,22.89
2022-08-16T00:34:44.672Z,22.88
2022-08-16T00:37:18.540Z,22.87
2022-08-16T00:39:57.302Z,22.87
2022-08-16T00:42:30.496Z,22.85
2022-08-16T00:45:13.927Z,22.83
2022-08-16T00:47:49.244Z,22.83
2022-08-16T00:50:18.861Z,22.83
2022-08-16T00:52:50.974Z,22.82
2022-08-16T00:55:21.910Z,22.81
2022-08-16T00:58:00.017Z,22.81
2022-08-16T01:00:32.236Z,22.81
2022-08-16T01:03:02.662Z,22.80
2022-08-16T01:05:32.968Z,22.80
2022-08-16T01:08:01.224Z,22.79
2022-08-16T01:10:33.586Z,22.78
2022-08-16T01:13:05.712Z,22.77
2022-08-16T01:15:37.468Z,22.75
2022-08-16T01:18:39.917Z,22.73
2022-08-16T01:21:06.395Z,22.70
2022-08-16T01:24:00.818Z,22.68
2022-08-16T01:26:35.577Z,22.65
2022-08-16T01:29:09.761Z,22.61
2022-08-16T01:31:42.777Z,22.58
2022-08-16T01:34:24.982Z,22.54
2022-08-16T01:36:59.566Z,22.51
2022-08-16T01:39:30.218Z,22.46
2022-08-16T01:42:12.266Z,22.43
2022-08-16T01:44:41.809Z,22.39
2022-08-16T01:47:11.569Z,22.35
2022-08-16T01:50:40.607Z,22.32
2022-08-16T01:52:30.572Z,22.28
2022-08-16T01:55:17.696Z,22.23
2022-08-16T01:57:53.281Z,22.19
2022-08-16T02:00:29.246Z,22.16
2022-08-16T02:03:00.420Z,22.12
2022-08-16T02:05:30.959Z,22.09
2022-08-16T02:08:04.863Z,22.06
2022-08-16T02:10:33.996Z,22.03
2022-08-16T02:13:05.837Z,22.00
2022-08-16T02:15:42.608Z,21.97
2022-08-16T02:18:13.870Z,21.96
2022-08-16T02:20:49.881Z,21.92
2022-08-16T02:23:23.023Z,21.88
2022-08-16T02:25:54.664Z,21.86
2022-08-16T02:28:26.848Z,21.83
2022-08-16T02:30:55.879Z,21.80
2022-08-16T02:33:44.134Z,21.79
2022-08-16T02:36:49.914Z,21.75
2022-08-16T02:39:22.370Z,21.72
2022-08-16T02:41:53.600Z,21.69
2022-08-16T02:44:26.829Z,21.64
2022-08-16T02:46:58.178Z,21.59
2022-08-16T02:49:58.108Z,21.55
2022-08-16T02:52:24.713Z,21.50
2022-08-16T02:54:59.621Z,21.45
2022-08-16T02:57:28.063Z,21.41
2022-08-16T02:59:58.552Z,21.38
2022-08-16T03:02:31.785Z,21.34
2022-08-16T03:05:05.744Z,21.29
2022-08-16T03:07:37.355Z,21.25
2022-08-16T03:10:08.643Z,21.23
2022-08-16T03:12:55.198Z,21.18
2022-08-16T03:15:29.885Z,21.14
2022-08-16T03:17:58.433Z,21.11
2022-08-16T03:20:32.536Z,21.09
2022-08-16T03:23:06.127Z,21.06
2022-08-16T03:25:43.967Z,21.04
2022-08-16T03:28:14.167Z,21.01
2022-08-16T03:30:50.523Z,20.98
2022-08-16T03:33:19.329Z,20.93
2022-08-16T03:36:29.876Z,20.91
2022-08-16T03:38:52.571Z,20.88
2022-08-16T03:41:29.593Z,20.88
2022-08-16T03:44:44.455Z,20.87
2022-08-16T03:47:10.068Z,20.84
2022-08-16T03:49:41.178Z,20.83
2022-08-16T03:52:13.472Z,20.82
2022-08-16T03:54:57.645Z,20.80
2022-08-16T03:57:31.878Z,20.78
2022-08-16T04:00:35.379Z,20.76
2022-08-16T04:03:08.567Z,20.74
2022-08-16T04:05:44.101Z,20.73
2022-08-16T04:08:23.356Z,20.70
2022-08-16T04:11:00.278Z,20.69
2022-08-16T04:13:59.092Z,20.67
2022-08-16T04:16:27.102Z,20.66
2022-08-16T04:19:05.051Z,20.64
2022-08-16T04:21:35.320Z,20.63
2022-08-16T04:24:08.069Z,20.61
2022-08-16T04:26:46.136Z,20.61
2022-08-16T04:29:24.526Z,20.60
2022-08-16T04:31:56.422Z,20.59
2022-08-16T04:34:33.061Z,20.59
2022-08-16T04:37:03.181Z,20.57
2022-08-16T04:39:47.026Z,20.56
2022-08-16T04:42:26.231Z,20.56
2022-08-16T04:44:57.778Z,20.55
2022-08-16T04:47:33.483Z,20.54
2022-08-16T04:50:11.818Z,20.53
2022-08-16T04:52:58.997Z,20.52
2022-08-16T04:55:31.957Z,20.52
2022-08-16T04:58:41.378Z,20.51
2022-08-16T05:00:58.519Z,20.51
2022-08-16T05:03:27.567Z,20.51
2022-08-16T05:06:02.236Z,20.50
2022-08-16T05:08:35.484Z,20.49
2022-08-16T05:11:10.390Z,20.52
2022-08-16T05:13:42.414Z,20.51
2022-08-16T05:16:19.750Z,20.51
2022-08-16T05:18:53.961Z,20.51
2022-08-16T05:21:35.900Z,20.52
2022-08-16T05:24:09.449Z,20.54
2022-08-16T05:26:43.072Z,20.54
2022-08-16T05:29:15.272Z,20.55
2022-08-16T05:31:58.646Z,20.58
2022-08-16T05:34:27.956Z,20.60
2022-08-16T05:36:58.679Z,20.65
2022-08-16T05:39:40.764Z,20.69
2022-08-16T05:42:10.060Z,20.74
2022-08-16T05:44:40.188Z,20.79
2022-08-16T05:47:15.290Z,20.84
2022-08-16T05:49:45.702Z,20.89
2022-08-16T05:52:21.227Z,20.94
2022-08-16T05:55:00.990Z,20.99
2022-08-16T05:57:35.482Z,21.03
2022-08-16T06:00:09.351Z,21.07
2022-08-16T06:02:41.395Z,21.10
2022-08-16T06:05:32.389Z,21.13
2022-08-16T06:08:06.598Z,21.15
2022-08-16T06:11:09.494Z,21.18
2022-08-16T06:13:32.613Z,21.20
2022-08-16T06:16:02.997Z,21.22
2022-08-16T06:18:31.441Z,21.25
2022-08-16T06:21:00.064Z,21.26
2022-08-16T06:23:32.342Z,21.30
2022-08-16T06:26:07.632Z,21.34
2022-08-16T06:28:41.894Z,21.37
2022-08-16T06:31:15.997Z,21.40
2022-08-16T06:33:47.888Z,21.45
2022-08-16T06:36:21.752Z,21.49
2022-08-16T06:39:09.013Z,21.54
2022-08-16T06:41:50.417Z,21.60
2022-08-16T06:44:37.701Z,21.67
2022-08-16T06:47:17.390Z,21.73
2022-08-16T06:49:52.837Z,21.82
2022-08-16T06:53:09.123Z,21.92
2022-08-16T06:55:18.755Z,22.07
2022-08-16T06:57:54.868Z,22.25
2022-08-16T07:00:24.772Z,22.47
2022-08-16T07:03:02.908Z,22.73
2022-08-16T07:05:51.522Z,23.02
2022-08-16T07:08:28.352Z,23.31
2022-08-16T07:10:58.833Z,23.61
2022-08-16T07:14:00.122Z,23.92
2022-08-16T07:16:21.878Z,24.24
2022-08-16T07:19:01.332Z,24.52
2022-08-16T07:21:46.445Z,24.79
2022-08-16T07:24:29.757Z,25.08
2022-08-16T07:27:08.377Z,25.34
2022-08-16T07:29:40.134Z,25.57
2022-08-16T07:32:10.490Z,25.78
2022-08-16T07:34:48.495Z,25.97
2022-08-16T07:37:23.045Z,26.18
2022-08-16T07:40:13.094Z,26.37
2022-08-16T07:42:47.627Z,26.53
2022-08-16T07:45:17.112Z,26.68
2022-08-16T07:47:51.538Z,26.84
2022-08-16T07:50:56.240Z,26.98
2022-08-16T07:53:09.061Z,27.13
2022-08-16T07:55:47.796Z,27.27
2022-08-16T07:58:35.140Z,27.41
2022-08-16T08:01:10.930Z,27.56
2022-08-16T08:03:49.348Z,27.68
2022-08-16T08:06:24.895Z,27.79
2022-08-16T08:08:57.021Z,27.89
2022-08-16T08:11:28.237Z,27.98
2022-08-16T08:14:03.665Z,28.07
2022-08-16T08:16:50.839Z,28.16
2022-08-16T08:19:26.597Z,28.24
2022-08-16T08:22:01.101Z,28.31
2022-08-16T08:24:43.832Z,28.37
2022-08-16T08:27:22.913Z,28.44
2022-08-16T08:30:43.918Z,28.50
2022-08-16T08:32:57.449Z,28.56
2022-08-16T08:35:30.827Z,28.60
2022-08-16T08:38:00.826Z,28.64
2022-08-16T08:40:31.958Z,28.69
2022-08-16T08:43:11.959Z,28.75
2022-08-16T08:45:55.798Z,28.82
2022-08-16T08:48:33.977Z,28.88
2022-08-16T08:51:10.403Z,28.96
2022-08-16T08:54:09.314Z,29.04
2022-08-16T08:56:45.703Z,29.12
2022-08-16T08:59:31.789Z,29.20
2022-08-16T09:02:03.088Z,29.27
2022-08-16T09:04:38.274Z,29.35
2022-08-16T09:07:08.045Z,29.44
2022-08-16T09:09:40.985Z,29.51
2022-08-16T09:12:30.146Z,29.57
2022-08-16T09:15:09.604Z,29.63
2022-08-16T09:17:53.417Z,29.71
2022-08-16T09:20:30.490Z,29.78
2022-08-16T09:23:03.482Z,29.84
2022-08-16T09:25:40.085Z,29.91
2022-08-16T09:29:13.782Z,29.97
2022-08-16T09:31:10.805Z,30.05
2022-08-16T09:33:41.169Z,30.13
2022-08-16T09:36:12.313Z,30.18
2022-08-16T09:38:59.650Z,30.24
2022-08-16T09:41:28.285Z,30.29
2022-08-16T09:43:59.570Z,30.35
2022-08-16T09:46:45.007Z,30.42
2022-08-16T09:49:19.786Z,30.48
2022-08-16T09:51:49.563Z,30.56
2022-08-16T09:54:20.949Z,30.61
2022-08-16T09:56:53.221Z,30.66
2022-08-16T09:59:22.946Z,30.70
2022-08-16T10:01:51.708Z,30.76
2022-08-16T10:04:30.967Z,30.82
2022-08-16T10:07:03.083Z,30.87
2022-08-16T10:09:53.518Z,30.93
2022-08-16T10:12:42.169Z,30.98
2022-08-16T10:15:15.153Z,31.02
2022-08-16T10:17:45.840Z,31.06
2022-08-16T10:20:31.841Z,31.07
2022-08-16T10:23:06.169Z,31.08
2022-08-16T10:27:03.785Z,31.06
2022-08-16T10:28:28.608Z,31.06
2022-08-16T10:30:58.792Z,31.07
2022-08-16T10:33:29.245Z,31.08
2022-08-16T10:36:03.383Z,31.09
2022-08-16T10:38:32.979Z,31.14
2022-08-16T10:41:04.749Z,31.19
2022-08-16T10:43:32.813Z,31.25
2022-08-16T10:46:01.618Z,31.30
2022-08-16T10:48:31.267Z,31.38
2022-08-16T10:51:00.928Z,31.45
2022-08-16T10:53:33.258Z,31.52
2022-08-16T10:56:02.932Z,31.59
2022-08-16T10:58:34.670Z,31.65
2022-08-16T11:03:54.226Z,31.79
2022-08-16T11:06:27.872Z,31.85
2022-08-16T11:14:34.996Z,32.04
2022-08-16T11:17:10.425Z,32.08
2022-08-16T11:22:46.944Z,32.15
2022-08-16T11:28:07.307Z,32.14
2022-08-16T11:30:39.172Z,32.12
2022-08-16T11:33:07.770Z,32.10
2022-08-16T11:35:44.082Z,32.10
2022-08-16T11:38:46.305Z,32.11
2022-08-16T11:41:04.060Z,32.13
2022-08-16T11:43:34.654Z,32.15
2022-08-16T11:46:44.546Z,32.18
2022-08-16T11:48:51.938Z,32.21
2022-08-16T11:51:19.784Z,32.20
2022-08-16T11:53:49.317Z,32.22
2022-08-16T11:56:19.069Z,32.22
2022-08-16T11:58:59.743Z,32.24
2022-08-16T12:01:29.557Z,32.26
2022-08-16T12:03:58.005Z,32.27
2022-08-16T12:06:30.830Z,32.28
2022-08-16T12:09:05.029Z,32.32
2022-08-16T12:11:34.194Z,32.35
2022-08-16T12:14:02.152Z,32.36
2022-08-16T12:16:36.002Z,32.37
2022-08-16T12:19:04.849Z,32.36
2022-08-16T12:21:35.950Z,32.35
2022-08-16T12:24:24.119Z,32.34
2022-08-16T12:26:55.323Z,32.33
2022-08-16T12:29:28.457Z,32.34
2022-08-16T12:32:01.424Z,32.35
2022-08-16T12:34:50.471Z,32.37
2022-08-16T12:37:21.381Z,32.37
2022-08-16T12:40:00.034Z,32.37
2022-08-16T12:42:35.514Z,32.37
2022-08-16T12:45:06.386Z,32.36
2022-08-16T12:48:04.878Z,32.34
2022-08-16T12:50:50.047Z,32.30
2022-08-16T12:53:20.877Z,32.24
2022-08-16T12:55:59.233Z,32.20
2022-08-16T12:58:49.052Z,32.15
2022-08-16T13:01:19.330Z,32.08
2022-08-16T13:04:08.211Z,32.04
2022-08-16T13:06:41.073Z,32.00
2022-08-16T13:09:29.128Z,31.97
2022-08-16T13:12:22.709Z,31.96
2022-08-16T13:14:56.940Z,31.96
2022-08-16T13:17:33.762Z,31.96
2022-08-16T13:20:11.000Z,31.97
2022-08-16T13:22:43.820Z,31.97
2022-08-16T13:25:18.935Z,31.97
2022-08-16T13:28:01.506Z,31.98
2022-08-16T13:30:37.247Z,32.02
2022-08-16T13:33:11.261Z,32.03
2022-08-16T13:35:43.088Z,32.06
2022-08-16T13:38:24.352Z,32.09
2022-08-16T13:40:53.085Z,32.11
2022-08-16T13:43:26.611Z,32.12
2022-08-16T13:45:55.476Z,32.12
2022-08-16T13:48:42.979Z,32.13
2022-08-16T13:51:16.715Z,32.11
2022-08-16T13:53:54.240Z,32.12
2022-08-16T13:56:38.197Z,32.12
2022-08-16T13:59:19.770Z,32.11
2022-08-16T14:01:59.838Z,32.11
2022-08-16T14:04:31.760Z,32.11
2022-08-16T14:07:03.705Z,32.11
2022-08-16T14:09:32.357Z,32.11
2022-08-16T14:12:09.512Z,32.11
2022-08-16T14:14:53.408Z,32.12
2022-08-16T14:17:24.792Z,32.11
2022-08-16T14:19:53.250Z,32.11
2022-08-16T14:22:30.251Z,32.11
2022-08-16T14:25:03.286Z,32.10
2022-08-16T14:27:31.880Z,32.09
2022-08-16T14:30:01.582Z,32.07
2022-08-16T14:32:34.032Z,32.08
2022-08-16T14:35:03.207Z,32.06
2022-08-16T14:37:32.607Z,32.05
2022-08-16T14:40:01.130Z,32.03
2022-08-16T14:42:31.548Z,32.01
2022-08-16T14:45:00.734Z,32.00
2022-08-16T14:47:31.568Z,31.97
2022-08-16T14:50:02.972Z,31.94
2022-08-16T14:55:22.536Z,31.89
2022-08-16T14:57:54.515Z,31.86
2022-08-16T15:00:33.038Z,31.83
2022-08-16T15:03:04.649Z,31.80
2022-08-16T15:05:33.063Z,31.77
2022-08-16T15:08:01.198Z,31.74
2022-08-16T15:10:32.162Z,31.71
2022-08-16T15:13:01.509Z,31.69
2022-08-16T15:15:30.479Z,31.65
2022-08-16T15:18:01.464Z,31.64
2022-08-16T15:20:33.473Z,31.62
2022-08-16T15:23:02.509Z,31.59
2022-08-16T15:25:33.114Z,31.58
2022-08-16T15:28:04.645Z,31.57
2022-08-16T15:30:57.926Z,31.55
2022-08-16T15:33:25.455Z,31.52
2022-08-16T15:35:57.912Z,31.48
2022-08-16T15:38:55.323Z,31.44
2022-08-16T15:41:30.125Z,31.39
2022-08-16T15:44:05.587Z,31.32
2022-08-16T15:46:54.677Z,31.28
2022-08-16T15:49:25.120Z,31.23
2022-08-16T15:52:05.327Z,31.19
2022-08-16T15:54:35.169Z,31.15
2022-08-16T15:57:10.882Z,31.12
2022-08-16T15:59:48.717Z,31.09
2022-08-16T16:02:29.418Z,31.06
2022-08-16T16:05:00.903Z,31.03
2022-08-16T16:07:32.186Z,31.00
2022-08-16T16:10:02.790Z,30.97
2022-08-16T16:12:51.368Z,30.95
2022-08-16T16:15:24.623Z,30.93
2022-08-16T16:17:55.322Z,30.90
2022-08-16T16:20:27.046Z,30.87
2022-08-16T16:22:59.455Z,30.83
2022-08-16T16:25:29.344Z,30.79
2022-08-16T16:27:59.581Z,30.75
2022-08-16T16:30:33.395Z,30.70
2022-08-16T16:33:15.631Z,30.66
2022-08-16T16:35:55.167Z,30.62
2022-08-16T16:38:30.956Z,30.58
2022-08-16T16:40:59.924Z,30.53
2022-08-16T16:43:31.517Z,30.50
2022-08-16T16:46:02.141Z,30.46
2022-08-16T16:48:35.349Z,30.42
2022-08-16T16:51:09.073Z,30.38
2022-08-16T16:53:41.330Z,30.33
2022-08-16T16:56:19.353Z,30.30
2022-08-16T16:59:01.153Z,30.26
2022-08-16T17:01:35.093Z,30.23
2022-08-16T17:04:27.407Z,30.19
2022-08-16T17:07:01.306Z,30.16
2022-08-16T17:09:31.148Z,30.14
2022-08-16T17:11:59.826Z,30.10
2022-08-16T17:17:17.221Z,30.04
2022-08-16T17:19:45.421Z,30.01
2022-08-16T17:22:15.546Z,29.98
2022-08-16T17:24:50.675Z,29.96
2022-08-16T17:27:32.034Z,29.92
2022-08-16T17:30:02.763Z,29.89
2022-08-16T17:32:34.267Z,29.86
2022-08-16T17:35:18.436Z,29.83
2022-08-16T17:37:51.972Z,29.80
2022-08-16T17:39:28.171Z,30.08
2022-08-16T17:40:40.538Z,29.76
2022-08-16T17:43:13.481Z,29.72
2022-08-16T17:45:42.201Z,29.68
2022-08-16T17:48:11.007Z,29.63
2022-08-16T17:50:39.564Z,29.61
2022-08-16T17:53:08.262Z,29.57
2022-08-16T17:55:39.818Z,29.54
2022-08-16T17:58:22.514Z,29.50
2022-08-16T18:00:53.011Z,29.47
2022-08-16T18:04:09.082Z,29.44
2022-08-16T18:06:13.564Z,29.40
2022-08-16T18:08:42.712Z,29.35
2022-08-16T18:11:13.482Z,29.31
2022-08-16T18:13:43.153Z,29.28
2022-08-16T18:16:11.980Z,29.24
2022-08-16T18:18:40.311Z,29.19
2022-08-16T18:21:27.152Z,29.15
2022-08-16T18:23:55.192Z,29.10
2022-08-16T18:26:24.709Z,29.04
2022-08-16T18:28:52.805Z,29.00
2022-08-16T18:31:21.117Z,28.95
2022-08-16T18:33:49.578Z,28.89
2022-08-16T18:36:23.391Z,28.85
2022-08-16T18:38:52.566Z,28.83
2022-08-16T18:41:21.597Z,28.78
2022-08-16T18:43:54.200Z,28.72
2022-08-16T18:46:42.477Z,28.67
2022-08-16T18:49:14.937Z,28.62
2022-08-16T18:51:46.467Z,28.58
2022-08-16T18:54:16.580Z,28.53
2022-08-16T18:56:55.385Z,28.50
2022-08-16T18:59:28.691Z,28.46
2022-08-16T19:02:05.185Z,28.42
2022-08-16T19:04:55.327Z,28.37
2022-08-16T19:07:22.722Z,28.32
2022-08-16T19:09:53.172Z,28.29
2022-08-16T19:12:38.322Z,28.27
2022-08-16T19:15:14.249Z,28.23
2022-08-16T19:17:42.733Z,28.20
2022-08-16T19:20:11.496Z,28.17
2022-08-16T19:23:02.340Z,28.14
2022-08-16T19:25:46.903Z,28.10
2022-08-16T19:28:49.257Z,28.07
2022-08-16T19:31:09.627Z,28.04
2022-08-16T19:33:38.077Z,28.03
2022-08-16T19:36:06.781Z,28.00
2022-08-16T19:38:36.522Z,27.98
2022-08-16T19:41:04.595Z,27.95
2022-08-16T19:43:32.791Z,27.94
2022-08-16T19:46:00.875Z,27.91
2022-08-16T19:48:33.158Z,27.88
2022-08-16T19:51:01.610Z,27.85
2022-08-16T19:53:29.811Z,27.84
2022-08-16T19:55:58.127Z,27.82
2022-08-16T19:58:26.329Z,27.79
2022-08-16T20:00:56.452Z,27.75
2022-08-16T20:03:25.439Z,27.74
2022-08-16T20:05:55.251Z,27.72
2022-08-16T20:08:23.808Z,27.69
2022-08-16T20:10:52.129Z,27.64
2022-08-16T20:13:21.655Z,27.59
2022-08-16T20:15:50.463Z,27.53
2022-08-16T20:18:25.035Z,27.45
2022-08-16T20:20:58.073Z,27.38
2022-08-16T20:23:29.361Z,27.32
2022-08-16T20:25:58.027Z,27.25
2022-08-16T20:28:40.134Z,27.18
2022-08-16T20:31:14.943Z,27.11
2022-08-16T20:33:44.010Z,27.04
2022-08-16T20:36:16.376Z,26.99
2022-08-16T20:38:47.007Z,26.93
2022-08-16T20:41:15.669Z,26.89
2022-08-16T20:43:43.637Z,26.84
2022-08-16T20:46:13.777Z,26.78
2022-08-16T20:48:41.724Z,26.73
2022-08-16T20:51:10.884Z,26.67
2022-08-16T20:53:41.131Z,26.62
2022-08-16T20:56:10.189Z,26.57
2022-08-16T20:58:38.602Z,26.54
2022-08-16T21:01:07.531Z,26.50
2022-08-16T21:03:35.970Z,26.45
2022-08-16T21:06:05.485Z,26.42
2022-08-16T21:08:52.302Z,26.38
2022-08-16T21:11:23.729Z,26.34
2022-08-16T21:13:51.690Z,26.31
2022-08-16T21:16:28.660Z,26.28
2022-08-16T21:18:56.978Z,26.26
2022-08-16T21:21:25.063Z,26.23
2022-08-16T21:24:01.901Z,26.20
2022-08-16T21:26:31.431Z,26.19
2022-08-16T21:28:59.636Z,26.17
2022-08-16T21:31:27.702Z,26.17
2022-08-16T21:33:56.161Z,26.15
2022-08-16T21:36:35.609Z,26.14
2022-08-16T21:39:06.480Z,26.14
2022-08-16T21:41:38.461Z,26.13
2022-08-16T21:44:06.591Z,26.11
2022-08-16T21:46:34.793Z,26.11
2022-08-16T21:49:04.690Z,26.10
2022-08-16T21:51:32.758Z,26.09
2022-08-16T21:54:00.730Z,26.08
2022-08-16T21:56:28.691Z,26.06
2022-08-16T21:58:58.080Z,26.04
2022-08-16T22:01:26.586Z,26.02
2022-08-16T22:04:35.514Z,25.99
2022-08-16T22:06:43.448Z,25.96
2022-08-16T22:09:12.498Z,25.94
2022-08-16T22:11:40.449Z,25.93
2022-08-16T22:14:10.696Z,25.92
2022-08-16T22:16:39.973Z,25.90
2022-08-16T22:19:07.819Z,25.90
2022-08-16T22:21:36.493Z,25.89
2022-08-16T22:24:04.814Z,25.87
2022-08-16T22:26:33.990Z,25.87
2022-08-16T22:29:02.541Z,25.87
2022-08-16T22:31:32.326Z,25.85
2022-08-16T22:34:01.910Z,25.84
2022-08-16T22:36:30.745Z,25.83
2022-08-16T22:38:59.659Z,25.82
2022-08-16T22:41:28.823Z,25.83
2022-08-16T22:43:56.908Z,25.80
2022-08-16T22:46:25.236Z,25.83
2022-08-16T22:48:54.755Z,25.81
2022-08-16T22:51:24.157Z,25.81
2022-08-16T22:53:52.650Z,25.80
2022-08-16T22:56:20.931Z,25.79
2022-08-16T22:58:49.254Z,25.79
2022-08-16T23:01:20.873Z,25.77
2022-08-16T23:03:49.002Z,25.76
2022-08-16T23:06:18.765Z,25.75
2022-08-16T23:08:46.855Z,25.74
2022-08-16T23:11:20.452Z,25.72
2022-08-16T23:13:53.802Z,25.69
2022-08-16T23:16:22.970Z,25.68
2022-08-16T23:18:53.484Z,25.64
2022-08-16T23:21:22.972Z,25.62
2022-08-16T23:23:54.661Z,25.60
2022-08-16T23:26:44.187Z,25.57
2022-08-16T23:29:15.516Z,25.54
2022-08-16T23:31:50.474Z,25.51
2022-08-16T23:34:21.542Z,25.48
2022-08-16T23:36:50.962Z,25.45
2022-08-16T23:39:19.029Z,25.43
2022-08-16T23:41:46.991Z,25.41
2022-08-16T23:44:41.976Z,25.40
2022-08-16T23:47:02.955Z,25.36
2022-08-16T23:49:57.136Z,25.34
2022-08-16T23:52:42.309Z,25.31
2022-08-16T23:55:09.201Z,25.28
2022-08-16T23:57:37.533Z,25.26
